Time;durP1;ratioP1;P1;durP2;ratioP2;P2;SDS_P1;SDS_P2;PMS_P1;PMS_P2;Temp;Humidity;BMP_temperature;BMP_pressure;BME280_temperature;BME280_humidity;BME280_pressure;Samples;Min_cycle;Max_cycle;Signal;HPM_P1;HPM_P2
2021/07/19 00:02:32;;;;;;;9.60;3.50;;;;;;;16.52;91.65;97941.66;4989269;28;20573;-63
2021/07/19 00:05:21;;;;;;;6.35;3.45;;;;;;;16.60;91.10;97942.00;4990862;28;20134;-63
2021/07/19 00:08:09;;;;;;;9.30;3.63;;;;;;;16.46;91.93;97942.00;4982997;28;20050;-63
2021/07/19 00:10:57;;;;;;;9.82;4.15;;;;;;;16.31;92.44;97944.63;4990215;28;20126;-63
2021/07/19 00:13:45;;;;;;;6.68;4.00;;;;;;;16.33;92.78;97952.41;4994308;28;20042;-63
2021/07/19 00:16:33;;;;;;;6.85;3.80;;;;;;;16.40;92.11;97943.25;4991243;28;20140;-63
2021/07/19 00:19:21;;;;;;;9.73;4.07;;;;;;;16.56;91.09;97939.66;4995897;28;20057;-64
2021/07/19 00:22:09;;;;;;;7.25;3.42;;;;;;;16.55;91.17;97949.31;4986719;28;20129;-63
2021/07/19 00:24:56;;;;;;;7.97;3.72;;;;;;;16.67;90.12;97945.97;4987431;28;20050;-64
2021/07/19 00:27:45;;;;;;;8.02;3.53;;;;;;;16.61;90.73;97948.94;4989367;28;20046;-64
2021/07/19 00:30:36;;;;;;;8.45;3.80;;;;;;;16.81;89.20;97939.91;4983876;28;20035;-63
2021/07/19 00:33:24;;;;;;;8.20;4.05;;;;;;;16.83;89.31;97950.28;4990136;28;20042;-64
2021/07/19 00:36:12;;;;;;;9.20;4.38;;;;;;;16.76;89.34;97946.31;4987035;28;20045;-63
2021/07/19 00:39:01;;;;;;;9.93;3.67;;;;;;;16.78;89.00;97936.59;4986424;28;20046;-63
2021/07/19 00:41:49;;;;;;;5.93;3.67;;;;;;;16.72;89.38;97946.50;4990692;28;20064;-64
2021/07/19 00:44:37;;;;;;;6.88;3.58;;;;;;;16.69;89.44;97940.59;4985523;28;20042;-63
2021/07/19 00:47:25;;;;;;;7.35;4.20;;;;;;;16.62;89.84;97947.16;4992892;28;20383;-64
2021/07/19 00:50:14;;;;;;;8.45;4.00;;;;;;;16.60;89.77;97952.50;4979712;28;20085;-63
2021/07/19 00:53:03;;;;;;;9.65;3.97;;;;;;;16.57;89.90;97955.31;4989333;28;20507;-64
2021/07/19 00:55:54;;;;;;;6.47;3.85;;;;;;;16.58;89.64;97945.66;4982571;28;20042;-64
2021/07/19 00:58:43;;;;;;;6.43;4.57;;;;;;;16.60;89.08;97947.25;4975052;28;20061;-63
2021/07/19 01:01:31;;;;;;;6.75;3.90;;;;;;;16.68;88.42;97949.41;4986213;28;20303;-63
2021/07/19 01:04:20;;;;;;;8.05;3.65;;;;;;;16.67;88.12;97940.72;4984513;28;20050;-64
2021/07/19 01:07:08;;;;;;;7.78;3.80;;;;;;;16.59;88.96;97939.50;4974320;28;20046;-63
2021/07/19 01:09:56;;;;;;;7.65;4.28;;;;;;;16.51;89.63;97943.44;4975430;28;20042;-64
2021/07/19 01:12:45;;;;;;;5.70;3.72;;;;;;;16.60;88.96;97944.63;4990310;28;20042;-63
2021/07/19 01:15:35;;;;;;;10.27;4.70;;;;;;;16.46;89.44;97935.00;4979900;28;20050;-64
2021/07/19 01:18:23;;;;;;;8.23;4.53;;;;;;;16.45;89.86;97941.19;4981186;28;20123;-64
2021/07/19 01:21:51;;;;;;;11.38;4.63;;;;;;;16.42;89.87;97933.50;4963184;28;20124;-63
2021/07/19 01:24:52;;;;;;;9.60;4.40;;;;;;;16.41;90.04;97937.06;4973535;28;20389;-63
2021/07/19 01:28:05;;;;;;;7.05;4.03;;;;;;;16.38;90.19;97933.78;4979226;28;20046;-64
2021/07/19 01:30:54;;;;;;;7.93;4.30;;;;;;;16.29;90.54;97928.16;4963897;28;20047;-64
2021/07/19 01:33:47;;;;;;;6.10;4.25;;;;;;;16.25;90.90;97931.91;4976387;28;20759;-63
2021/07/19 01:36:38;;;;;;;10.10;5.00;;;;;;;16.21;90.79;97927.78;4957348;28;20075;-64
2021/07/19 01:39:28;;;;;;;10.50;4.57;;;;;;;16.27;90.33;97931.81;4959064;28;20089;-63
2021/07/19 01:42:16;;;;;;;9.60;4.63;;;;;;;16.24;90.50;97929.38;4961024;28;20043;-64
2021/07/19 01:45:05;;;;;;;7.55;4.32;;;;;;;16.19;90.65;97932.25;4962781;28;20046;-63
2021/07/19 01:47:54;;;;;;;6.30;4.30;;;;;;;16.19;90.58;97932.25;4972678;28;20042;-63
2021/07/19 01:50:41;;;;;;;6.75;4.40;;;;;;;16.09;90.92;97931.13;4972008;28;20132;-64
2021/07/19 01:53:29;;;;;;;7.70;4.72;;;;;;;15.99;91.63;97927.38;4950116;28;20042;-63
2021/07/19 01:56:17;;;;;;;13.85;5.00;;;;;;;15.92;91.83;97931.28;4964517;28;20101;-63
2021/07/19 01:59:05;;;;;;;6.47;4.45;;;;;;;15.89;91.90;97927.06;4969168;28;20547;-63
2021/07/19 02:01:53;;;;;;;7.28;4.72;;;;;;;15.89;91.82;97927.91;4974351;28;20046;-63
2021/07/19 02:04:41;;;;;;;11.05;4.55;;;;;;;15.82;91.93;97928.34;4968979;28;20043;-63
2021/07/19 02:07:29;;;;;;;7.28;4.65;;;;;;;15.87;92.06;97936.78;4969454;28;20085;-64
2021/07/19 02:10:17;;;;;;;9.50;4.70;;;;;;;15.83;92.29;97935.28;4968964;28;20134;-63
2021/07/19 02:13:05;;;;;;;9.48;4.82;;;;;;;15.87;92.06;97934.16;4986644;28;20140;-63
2021/07/19 02:15:55;;;;;;;10.98;5.15;;;;;;;15.91;91.55;97927.81;4959945;28;20050;-63
2021/07/19 02:18:45;;;;;;;7.35;4.93;;;;;;;15.89;91.18;97929.69;4978706;28;20042;-63
2021/07/19 02:21:33;;;;;;;5.85;4.90;;;;;;;15.78;91.41;97932.94;4994513;28;20097;-63
2021/07/19 02:24:24;;;;;;;6.93;4.90;;;;;;;15.69;92.04;97934.28;4973624;28;20097;-63
2021/07/19 02:27:11;;;;;;;7.60;4.90;;;;;;;15.62;91.79;97942.56;4975760;28;20039;-63
2021/07/19 02:30:00;;;;;;;7.90;4.75;;;;;;;15.62;92.37;97940.81;4978987;28;20439;-63
2021/07/19 02:32:50;;;;;;;6.43;4.70;;;;;;;15.63;92.12;97939.84;4963203;28;20061;-63
2021/07/19 02:35:41;;;;;;;8.88;5.18;;;;;;;15.61;92.64;97938.25;4973890;28;20062;-63
2021/07/19 02:38:29;;;;;;;11.88;5.35;;;;;;;15.58;92.69;97943.69;4964015;28;20546;-63
2021/07/19 02:41:19;;;;;;;9.68;4.95;;;;;;;15.56;92.38;97942.91;4961900;28;20158;-63
2021/07/19 02:44:07;;;;;;;7.13;4.78;;;;;;;15.53;91.51;97943.94;4994110;28;20168;-63
2021/07/19 02:46:56;;;;;;;10.27;5.47;;;;;;;15.31;93.17;97946.06;4975644;28;20169;-63
2021/07/19 02:49:45;;;;;;;9.77;4.68;;;;;;;15.30;93.71;97953.06;4987636;28;20452;-63
2021/07/19 02:52:34;;;;;;;6.55;4.90;;;;;;;15.19;93.80;97945.81;4974025;28;20042;-63
2021/07/19 02:55:21;;;;;;;9.63;4.97;;;;;;;15.19;93.89;97943.22;4972289;28;20067;-63
2021/07/19 02:58:13;;;;;;;8.48;5.70;;;;;;;15.10;94.25;97940.25;4978746;28;20128;-63
2021/07/19 03:01:02;;;;;;;8.60;5.15;;;;;;;15.09;93.99;97943.81;4964333;28;20043;-63
2021/07/19 03:03:51;;;;;;;8.60;5.00;;;;;;;14.98;94.46;97934.75;4978802;28;20051;-63
2021/07/19 03:06:40;;;;;;;9.25;5.57;;;;;;;14.94;95.09;97941.09;4965841;28;20092;-63
2021/07/19 03:09:28;;;;;;;7.43;5.25;;;;;;;14.97;94.75;97937.47;4962711;28;20424;-63
2021/07/19 03:12:19;;;;;;;9.13;5.68;;;;;;;14.95;94.81;97936.72;4990271;28;20061;-64
2021/07/19 03:15:08;;;;;;;7.80;5.55;;;;;;;14.96;94.92;97938.38;4992092;28;20050;-63
2021/07/19 03:17:57;;;;;;;7.72;5.35;;;;;;;14.95;94.45;97927.09;4988859;28;20047;-63
2021/07/19 03:20:46;;;;;;;7.40;5.38;;;;;;;14.91;94.38;97933.41;4975987;28;20046;-63
2021/07/19 03:23:38;;;;;;;6.22;4.93;;;;;;;14.95;95.08;97931.50;4983565;28;20096;-63
2021/07/19 03:26:29;;;;;;;6.13;4.45;;;;;;;14.99;95.09;97933.84;4980696;28;20070;-63
2021/07/19 03:29:18;;;;;;;8.00;5.05;;;;;;;15.03;94.36;97932.75;4990008;28;20392;-63
2021/07/19 03:32:06;;;;;;;8.43;5.32;;;;;;;15.02;94.40;97933.66;4979598;28;20066;-63
2021/07/19 03:34:54;;;;;;;7.75;5.22;;;;;;;15.03;95.10;97932.75;4978135;28;20496;-63
2021/07/19 03:37:42;;;;;;;6.13;4.78;;;;;;;14.98;94.98;97936.53;4978925;28;20042;-63
2021/07/19 03:40:30;;;;;;;8.23;5.15;;;;;;;14.90;95.07;97936.97;4991881;28;20128;-64
2021/07/19 03:43:18;;;;;;;7.97;5.25;;;;;;;14.87;95.23;97946.72;4973937;28;20173;-63
2021/07/19 03:46:06;;;;;;;7.70;5.43;;;;;;;14.83;95.73;97946.91;4975023;28;20065;-62
2021/07/19 03:48:54;;;;;;;6.82;5.43;;;;;;;14.83;96.19;97941.69;4975464;28;20046;-63
2021/07/19 03:51:43;;;;;;;11.77;5.90;;;;;;;14.77;96.61;97938.56;4982140;28;20109;-63
2021/07/19 03:54:33;;;;;;;8.38;4.90;;;;;;;14.82;95.45;97937.38;4988111;28;20499;-63
2021/07/19 03:57:21;;;;;;;7.53;5.25;;;;;;;14.83;95.10;97938.22;4974802;28;20030;-63
2021/07/19 04:00:12;;;;;;;14.23;5.78;;;;;;;14.78;95.07;97935.00;4977178;28;20086;-63
2021/07/19 04:03:04;;;;;;;6.18;4.88;;;;;;;14.71;95.93;97937.13;4966185;28;20129;-63
2021/07/19 04:06:11;;;;;;;8.73;5.13;;;;;;;14.72;95.46;97943.19;4975095;28;20058;-63
2021/07/19 04:08:59;;;;;;;10.10;5.75;;;;;;;14.66;95.96;97939.13;4978531;28;20101;-63
2021/07/19 04:11:47;;;;;;;7.38;5.30;;;;;;;14.67;95.39;97942.59;4977318;28;20066;-63
2021/07/19 04:14:35;;;;;;;9.00;5.32;;;;;;;14.72;96.09;97944.03;4962658;28;20085;-63
2021/07/19 04:17:23;;;;;;;6.93;5.30;;;;;;;14.73;96.51;97943.09;4991014;28;20038;-62
2021/07/19 04:20:12;;;;;;;9.20;6.13;;;;;;;14.79;97.06;97944.53;4976276;28;20046;-63
2021/07/19 04:23:00;;;;;;;7.72;5.25;;;;;;;14.80;96.96;97947.09;4990321;28;20038;-63
2021/07/19 04:25:48;;;;;;;8.68;5.55;;;;;;;14.87;97.11;97944.97;4976172;28;20085;-63
2021/07/19 04:28:37;;;;;;;11.02;6.57;;;;;;;14.81;97.27;97942.69;4975025;28;20518;-63
2021/07/19 04:31:25;;;;;;;12.07;6.13;;;;;;;14.88;97.04;97943.22;4984798;28;20054;-63
2021/07/19 04:34:13;;;;;;;8.55;5.93;;;;;;;14.94;96.74;97938.50;4989196;28;20042;-63
2021/07/19 04:37:03;;;;;;;6.95;5.60;;;;;;;15.04;96.35;97938.81;4973672;28;20070;-63
2021/07/19 04:39:52;;;;;;;11.00;5.20;;;;;;;15.18;96.10;97933.66;4988836;28;20048;-63
2021/07/19 04:42:40;;;;;;;10.27;5.40;;;;;;;15.27;96.07;97937.56;4980370;28;20039;-63
2021/07/19 04:45:27;;;;;;;9.77;5.57;;;;;;;15.33;95.61;97937.22;4988947;28;20042;-63
2021/07/19 04:48:16;;;;;;;9.82;5.43;;;;;;;15.33;96.12;97939.84;4978594;28;20696;-63
2021/07/19 04:51:04;;;;;;;8.73;5.75;;;;;;;15.43;95.64;97940.97;4987666;28;20046;-63
2021/07/19 04:53:53;;;;;;;7.53;5.32;;;;;;;15.51;95.44;97947.56;4989857;28;20042;-63
2021/07/19 04:56:42;;;;;;;7.10;5.25;;;;;;;15.60;94.92;97940.03;4981192;28;20097;-63
2021/07/19 04:59:30;;;;;;;7.78;5.78;;;;;;;15.63;95.33;97941.63;4980385;28;20078;-63
2021/07/19 05:02:20;;;;;;;7.88;5.22;;;;;;;15.64;95.52;97943.31;4973474;28;20100;-63
2021/07/19 05:05:12;;;;;;;7.00;5.72;;;;;;;15.72;95.54;97941.13;4975041;28;20042;-63
2021/07/19 05:08:01;;;;;;;8.38;4.93;;;;;;;15.79;95.67;97946.88;4975997;28;20645;-63
2021/07/19 05:10:50;;;;;;;8.80;5.63;;;;;;;15.88;95.39;97946.34;4988050;28;20229;-63
2021/07/19 05:13:38;;;;;;;7.25;5.20;;;;;;;16.07;94.43;97951.31;4976979;28;20042;-63
2021/07/19 05:16:28;;;;;;;5.90;4.40;;;;;;;16.25;93.54;97949.41;4990541;28;20068;-63
2021/07/19 05:19:16;;;;;;;7.38;4.93;;;;;;;16.36;92.51;97949.59;4969823;28;20042;-63
2021/07/19 05:22:11;;;;;;;7.20;4.55;;;;;;;16.47;92.82;97955.03;4975767;28;20122;-63
2021/07/19 05:24:59;;;;;;;7.40;4.85;;;;;;;16.45;92.45;97951.66;4989307;28;20050;-63
2021/07/19 05:28:11;;;;;;;7.78;4.93;;;;;;;16.68;91.53;97955.50;4987791;28;20035;-63
2021/07/19 05:31:02;;;;;;;9.38;4.88;;;;;;;16.80;89.96;97951.31;4976121;28;20109;-63
2021/07/19 05:33:50;;;;;;;6.68;4.25;;;;;;;17.14;89.40;97957.06;4988493;28;20034;-63
2021/07/19 05:36:38;;;;;;;6.63;4.70;;;;;;;17.15;90.50;97956.13;4988599;28;20117;-64
2021/07/19 05:39:26;;;;;;;9.00;5.35;;;;;;;17.19;89.62;97947.13;4989729;28;20034;-63
2021/07/19 05:42:14;;;;;;;7.53;5.30;;;;;;;17.33;89.82;97956.72;4988993;28;20179;-63
2021/07/19 05:45:02;;;;;;;9.15;5.32;;;;;;;17.49;87.76;97949.56;4988549;28;20042;-63
2021/07/19 05:47:49;;;;;;;7.22;5.05;;;;;;;17.55;86.40;97948.31;4983805;28;20103;-63
2021/07/19 05:50:37;;;;;;;8.18;5.03;;;;;;;17.74;84.14;97947.94;4988782;28;20050;-63
2021/07/19 05:53:25;;;;;;;9.00;4.80;;;;;;;17.81;83.58;97953.66;4988951;28;20039;-63
2021/07/19 05:56:13;;;;;;;7.95;5.05;;;;;;;18.01;83.75;97949.75;4991686;28;20581;-63
2021/07/19 05:59:02;;;;;;;6.43;4.82;;;;;;;17.97;82.90;97949.94;4992308;28;20128;-64
2021/07/19 06:01:50;;;;;;;8.27;4.40;;;;;;;17.99;83.06;97949.81;4993388;28;20046;-63
2021/07/19 06:04:38;;;;;;;8.13;4.75;;;;;;;18.06;82.10;97950.25;4990792;28;20053;-63
2021/07/19 06:07:25;;;;;;;8.07;4.93;;;;;;;18.05;82.88;97956.47;4990257;28;20503;-63
2021/07/19 06:10:14;;;;;;;8.15;5.10;;;;;;;18.17;82.11;97953.84;4990183;28;20392;-63
2021/07/19 06:13:01;;;;;;;9.07;4.50;;;;;;;18.24;81.33;97949.00;4991350;28;20038;-64
2021/07/19 06:15:49;;;;;;;11.25;5.22;;;;;;;18.15;80.02;97941.75;4977374;28;20046;-63
2021/07/19 06:18:37;;;;;;;8.40;4.97;;;;;;;17.94;81.69;97946.66;4989091;28;20038;-64
2021/07/19 06:21:25;;;;;;;8.35;5.32;;;;;;;18.06;81.47;97948.47;4992905;28;20410;-63
2021/07/19 06:24:12;;;;;;;7.60;5.47;;;;;;;18.07;81.72;97950.16;4992612;28;20090;-63
2021/07/19 06:27:00;;;;;;;8.20;4.82;;;;;;;18.21;81.24;97951.84;4991677;28;20117;-63
2021/07/19 06:29:48;;;;;;;7.20;5.15;;;;;;;18.23;81.27;97952.59;4978087;28;20046;-63
2021/07/19 06:32:36;;;;;;;7.38;5.13;;;;;;;18.24;80.83;97956.91;4988853;28;20441;-62
2021/07/19 06:35:24;;;;;;;9.32;5.00;;;;;;;18.30;80.91;97956.50;4990551;28;20093;-62
2021/07/19 06:38:12;;;;;;;6.35;4.70;;;;;;;18.37;80.81;97952.50;4990187;28;20471;-62
2021/07/19 06:40:59;;;;;;;9.82;5.20;;;;;;;18.35;80.93;97956.19;4990237;28;20049;-62
2021/07/19 06:43:47;;;;;;;10.93;5.55;;;;;;;18.35;81.53;97956.19;4994068;28;20038;-63
2021/07/19 06:46:35;;;;;;;8.63;5.05;;;;;;;18.40;81.14;97954.06;4982503;28;20483;-62
2021/07/19 06:49:24;;;;;;;10.05;5.50;;;;;;;18.47;81.55;97957.97;4978610;28;20049;-62
2021/07/19 06:52:12;;;;;;;8.95;5.13;;;;;;;18.72;81.55;97964.16;4988103;28;20049;-62
2021/07/19 06:55:00;;;;;;;10.52;4.90;;;;;;;18.80;80.15;97954.81;4991177;28;20046;-62
2021/07/19 06:57:48;;;;;;;7.82;4.78;;;;;;;18.94;79.69;97963.53;4989911;28;20042;-62
2021/07/19 07:00:36;;;;;;;9.57;4.95;;;;;;;19.11;78.97;97954.44;4990686;28;20035;-62
2021/07/19 07:03:23;;;;;;;8.30;5.13;;;;;;;19.19;78.94;97960.84;4990981;28;20108;-62
2021/07/19 07:06:11;;;;;;;6.35;4.60;;;;;;;19.27;77.85;97957.63;4990054;28;20125;-62
2021/07/19 07:08:59;;;;;;;9.00;5.10;;;;;;;19.26;78.45;97947.25;4988935;28;20041;-63
2021/07/19 07:11:47;;;;;;;7.15;4.70;;;;;;;19.25;77.77;97954.31;4989719;28;20093;-62
2021/07/19 07:14:35;;;;;;;8.60;4.85;;;;;;;19.15;78.22;97959.38;4989953;28;20049;-62
2021/07/19 07:17:23;;;;;;;10.75;5.05;;;;;;;19.24;78.08;97947.34;4997697;28;20038;-62
2021/07/19 07:20:12;;;;;;;6.20;4.60;;;;;;;19.48;77.47;97952.63;5007988;28;20522;-62
2021/07/19 07:22:59;;;;;;;6.63;4.10;;;;;;;19.56;76.37;97949.44;4976315;28;20410;-62
2021/07/19 07:25:49;;;;;;;8.50;4.55;;;;;;;19.46;76.91;97943.19;4980393;28;20042;-63
2021/07/19 07:28:38;;;;;;;7.38;4.25;;;;;;;19.54;77.19;97951.34;4995962;28;20093;-62
2021/07/19 07:31:27;;;;;;;6.80;4.45;;;;;;;19.77;77.17;97947.03;4988601;28;20129;-63
2021/07/19 07:34:15;;;;;;;8.02;4.20;;;;;;;20.10;75.68;97941.03;4995141;28;20038;-62
2021/07/19 07:37:03;;;;;;;8.32;4.63;;;;;;;20.10;75.24;97940.22;4991810;28;20057;-62
2021/07/19 07:39:50;;;;;;;7.47;4.55;;;;;;;20.13;75.28;97938.16;4992488;28;20046;-62
2021/07/19 07:42:38;;;;;;;11.00;5.15;;;;;;;20.04;74.74;97938.88;4989732;28;20791;-62
2021/07/19 07:45:26;;;;;;;6.72;4.10;;;;;;;20.20;75.79;97930.63;4973178;28;20046;-62
2021/07/19 07:48:14;;;;;;;7.78;4.00;;;;;;;20.66;74.21;97930.59;4989474;28;20200;-62
2021/07/19 07:51:03;;;;;;;8.52;4.40;;;;;;;20.77;72.84;97937.66;4973781;28;20140;-62
2021/07/19 07:53:51;;;;;;;9.95;4.13;;;;;;;20.94;73.19;97927.56;4988796;28;20518;-62
2021/07/19 07:56:39;;;;;;;7.60;4.55;;;;;;;20.76;73.48;97930.72;4988431;28;20050;-62
2021/07/19 07:59:45;;;;;;;6.75;4.32;;;;;;;20.71;73.06;97932.88;4989572;28;20163;-62
2021/07/19 08:02:33;;;;;;;11.35;4.43;;;;;;;20.72;72.14;97937.19;4990270;28;20142;-62
2021/07/19 08:05:21;;;;;;;8.05;4.13;;;;;;;20.67;72.82;97948.09;4988385;28;20551;-62
2021/07/19 08:08:09;;;;;;;7.93;3.97;;;;;;;20.96;72.22;97944.13;4997924;28;20421;-62
2021/07/19 08:10:56;;;;;;;6.00;4.25;;;;;;;21.27;71.37;97948.63;4991262;28;20050;-63
2021/07/19 08:13:44;;;;;;;5.45;3.78;;;;;;;21.16;70.12;97939.91;4998997;28;20050;-62
2021/07/19 08:16:36;;;;;;;8.35;4.40;;;;;;;21.22;69.50;97927.06;4993625;28;20049;-63
2021/07/19 08:19:32;;;;;;;;;;;;;;;21.24;70.63;97932.22;4976468;28;20157;-62
2021/07/19 08:22:22;;;;;;;7.30;3.85;;;;;;;21.19;69.74;97923.81;4998690;28;19921;-62
2021/07/19 08:25:10;;;;;;;5.38;3.40;;;;;;;21.74;69.62;97929.09;4988210;28;20422;-62
2021/07/19 08:27:57;;;;;;;6.20;3.75;;;;;;;21.69;66.54;97927.66;4989338;28;20058;-62
2021/07/19 08:30:45;;;;;;;6.00;2.92;;;;;;;22.25;66.67;97921.25;4984782;28;20132;-62
2021/07/19 08:33:32;;;;;;;7.68;3.65;;;;;;;22.52;64.43;97920.69;4988493;28;20050;-62
2021/07/19 08:36:20;;;;;;;7.03;3.17;;;;;;;22.86;61.96;97912.50;4982488;28;20411;-62
2021/07/19 08:39:08;;;;;;;6.68;2.92;;;;;;;22.44;62.59;97919.69;4993160;28;20394;-62
2021/07/19 08:41:56;;;;;;;3.80;3.13;;;;;;;22.40;63.49;97921.78;4992970;28;20057;-62
2021/07/19 08:44:44;;;;;;;8.73;3.40;;;;;;;22.44;64.43;97915.25;4976593;28;20069;-62
2021/07/19 08:47:34;;;;;;;7.70;3.50;;;;;;;22.09;65.05;97921.69;4988097;28;20096;-62
2021/07/19 08:50:24;;;;;;;6.40;3.10;;;;;;;23.19;63.04;97918.44;4975399;28;20377;-62
2021/07/19 08:53:12;;;;;;;12.88;3.55;;;;;;;23.53;60.69;97913.59;4987933;28;20102;-62
2021/07/19 08:56:00;;;;;;;7.40;3.13;;;;;;;24.15;59.11;97906.22;4988696;28;20438;-62
2021/07/19 08:58:49;;;;;;;8.55;2.97;;;;;;;24.31;57.21;97908.25;4972937;28;20038;-62
2021/07/19 09:01:40;;;;;;;4.88;2.63;;;;;;;24.21;56.79;97905.63;4972727;28;20136;-62
2021/07/19 09:04:28;;;;;;;6.72;2.70;;;;;;;24.48;56.50;97903.22;4986154;28;20046;-62
2021/07/19 09:07:18;;;;;;;3.95;2.20;;;;;;;24.85;55.82;97900.53;4985236;28;20419;-62
2021/07/19 09:10:06;;;;;;;4.93;2.40;;;;;;;25.06;54.64;97900.28;4978999;28;20053;-62
2021/07/19 09:12:58;;;;;;;5.35;1.90;;;;;;;26.20;53.51;97902.34;4989994;28;20457;-63
2021/07/19 09:15:46;;;;;;;;;;;;;;;26.20;53.46;97889.06;4984687;28;20077;-62
2021/07/19 09:18:34;;;;;;;5.05;2.30;;;;;;;25.98;52.00;97909.88;4985178;28;19976;-62
2021/07/19 09:21:33;;;;;;;11.02;2.85;;;;;;;26.39;49.84;97893.31;4989847;28;20463;-62
2021/07/19 09:24:24;;;;;;;5.10;2.40;;;;;;;26.04;50.70;97901.25;4988191;28;20043;-62
2021/07/19 09:27:20;;;;;;;4.97;1.90;;;;;;;27.39;48.23;97893.59;4987432;28;20050;-63
2021/07/19 09:30:16;;;;;;;2.72;1.63;;;;;;;27.82;46.18;97889.78;4992615;28;20487;-63
2021/07/19 09:33:07;;;;;;;3.40;1.70;;;;;;;27.75;46.55;97884.28;4980332;28;20144;-63
2021/07/19 09:35:55;;;;;;;4.32;2.30;;;;;;;26.42;48.04;97890.38;4991458;28;20451;-60
2021/07/19 09:38:42;;;;;;;4.60;1.60;;;;;;;26.51;47.09;97884.09;4988072;28;20473;-61
2021/07/19 09:41:30;;;;;;;3.97;1.40;;;;;;;27.52;45.13;97878.78;4974143;28;20046;-61
2021/07/19 09:44:23;;;;;;;3.38;1.52;;;;;;;26.27;46.07;97879.44;4976173;28;20069;-61
2021/07/19 09:47:14;;;;;;;5.05;1.80;;;;;;;27.26;44.56;97872.78;4991922;28;20043;-61
2021/07/19 09:50:09;;;;;;;4.40;1.75;;;;;;;28.18;43.08;97869.97;4994706;28;20442;-61
2021/07/19 09:52:58;;;;;;;5.90;2.20;;;;;;;28.01;44.97;97871.81;4989860;28;20050;-61
2021/07/19 09:55:45;;;;;;;4.93;1.90;;;;;;;27.24;44.79;97875.59;4976708;28;20054;-60
2021/07/19 09:58:33;;;;;;;4.07;1.60;;;;;;;27.04;45.15;97877.66;4992584;28;20042;-61
2021/07/19 10:01:26;;;;;;;4.30;1.63;;;;;;;26.58;45.44;97871.00;4975919;28;20053;-61
2021/07/19 10:04:20;;;;;;;4.93;1.83;;;;;;;29.10;42.11;97871.19;4989134;28;20085;-61
2021/07/19 10:07:08;;;;;;;5.68;1.73;;;;;;;28.65;42.72;97871.88;4994745;28;20038;-60
2021/07/19 10:09:58;;;;;;;5.93;1.60;;;;;;;26.76;44.58;97869.09;4996581;28;20112;-61
2021/07/19 10:12:45;;;;;;;4.55;2.00;;;;;;;27.06;45.90;97872.19;4989503;28;20054;-61
2021/07/19 10:15:34;;;;;;;3.70;1.70;;;;;;;27.49;43.66;97865.78;4978095;28;20069;-61
2021/07/19 10:18:23;;;;;;;3.28;1.50;;;;;;;28.72;41.80;97864.81;4987993;28;20085;-61
2021/07/19 10:21:11;;;;;;;7.05;1.33;;;;;;;28.39;42.35;97864.06;4940963;28;20102;-61
2021/07/19 10:24:03;;;;;;;3.13;1.10;;;;;;;29.05;41.52;97860.13;4964417;28;20124;-61
2021/07/19 10:26:51;;;;;;;6.18;1.45;;;;;;;29.12;40.24;97862.97;4960762;28;20056;-61
2021/07/19 10:29:40;;;;;;;4.85;1.88;;;;;;;28.56;42.29;97865.72;4992672;28;20078;-61
2021/07/19 10:32:27;;;;;;;3.53;1.60;;;;;;;27.91;42.46;97863.97;4975609;28;20061;-61
2021/07/19 10:35:16;;;;;;;6.90;1.52;;;;;;;28.73;41.48;97856.63;4991405;28;20076;-61
2021/07/19 10:38:15;;;;;;;2.63;1.33;;;;;;;29.05;41.05;97853.97;4990247;28;20395;-61
2021/07/19 10:41:03;;;;;;;2.72;1.25;;;;;;;28.72;42.19;97854.13;4991101;28;20050;-62
2021/07/19 10:44:05;;;;;;;4.22;1.42;;;;;;;28.47;42.50;97856.91;4977541;28;20043;-61
2021/07/19 10:46:55;;;;;;;3.42;1.30;;;;;;;28.60;42.57;97847.50;4989801;28;20435;-61
2021/07/19 10:50:04;;;;;;;3.95;1.20;;;;;;;28.44;41.08;97843.88;4973389;28;20069;-61
2021/07/19 10:52:55;;;;;;;4.38;1.58;;;;;;;28.00;43.54;97854.97;4986185;28;20495;-61
2021/07/19 10:55:43;;;;;;;7.40;1.48;;;;;;;28.76;41.66;97845.59;4991729;28;20130;-61
2021/07/19 10:58:38;;;;;;;3.75;1.27;;;;;;;28.86;40.41;97841.88;4970709;28;20045;-61
2021/07/19 11:01:31;;;;;;;3.50;1.27;;;;;;;29.17;39.69;97847.22;4990657;28;20074;-61
2021/07/19 11:04:19;;;;;;;7.30;1.55;;;;;;;28.98;39.74;97835.94;4991477;28;20050;-61
2021/07/19 11:07:11;;;;;;;3.33;1.50;;;;;;;29.22;40.97;97834.19;4995251;28;20038;-61
2021/07/19 11:09:59;;;;;;;3.42;1.48;;;;;;;28.10;40.84;97836.94;4990963;28;20047;-61
2021/07/19 11:12:49;;;;;;;4.07;1.42;;;;;;;29.35;38.56;97830.91;4991463;28;20038;-61
2021/07/19 11:15:39;;;;;;;3.47;1.23;;;;;;;29.37;39.70;97840.41;4987702;28;20046;-61
2021/07/19 11:18:29;;;;;;;4.28;1.15;;;;;;;30.84;36.26;97830.13;4998895;28;20461;-61
2021/07/19 11:21:23;;;;;;;4.87;1.40;;;;;;;28.42;38.06;97837.88;4989977;28;20078;-61
2021/07/19 11:24:15;;;;;;;5.03;1.00;;;;;;;30.13;35.92;97829.75;5000987;28;20054;-61
2021/07/19 11:27:02;;;;;;;3.10;1.00;;;;;;;29.17;36.75;97839.22;4997485;28;20049;-61
2021/07/19 11:30:22;;;;;;;4.35;1.20;;;;;;;29.29;35.43;97843.16;4995908;28;20059;-61
2021/07/19 11:33:11;;;;;;;3.55;1.08;;;;;;;30.53;35.57;97830.31;4982642;28;20097;-61
2021/07/19 11:36:01;;;;;;;3.22;1.00;;;;;;;29.48;34.54;97830.31;4989336;28;20187;-61
2021/07/19 11:38:53;;;;;;;4.80;1.30;;;;;;;28.90;36.56;97837.84;4989752;28;20047;-62
2021/07/19 11:41:41;;;;;;;2.85;1.15;;;;;;;29.73;35.77;97829.13;4990425;28;20054;-62
2021/07/19 11:44:32;;;;;;;3.78;1.20;;;;;;;29.38;36.21;97828.72;4988829;28;20416;-61
2021/07/19 11:47:20;;;;;;;3.92;1.30;;;;;;;30.05;35.71;97823.66;4986509;28;20050;-62
2021/07/19 11:50:08;;;;;;;3.25;1.30;;;;;;;28.57;38.61;97821.97;4974328;28;20100;-62
2021/07/19 11:52:57;;;;;;;10.93;1.98;;;;;;;28.51;38.94;97828.00;4987931;28;20057;-62
2021/07/19 11:55:44;;;;;;;5.53;1.30;;;;;;;29.42;37.64;97825.66;4981104;28;20038;-61
2021/07/19 11:58:32;;;;;;;4.07;1.50;;;;;;;29.46;38.86;97822.47;4986024;28;20043;-62
2021/07/19 12:01:31;;;;;;;7.10;1.67;;;;;;;28.92;39.90;97828.66;4993095;28;20124;-62
2021/07/19 12:04:19;;;;;;;3.22;1.38;;;;;;;29.02;39.23;97831.09;4989786;28;20085;-61
2021/07/19 12:07:08;;;;;;;4.72;1.58;;;;;;;29.83;38.39;97820.81;4974597;28;20457;-62
2021/07/19 12:10:00;;;;;;;4.47;1.40;;;;;;;30.28;37.63;97820.91;4987326;28;20045;-61
2021/07/19 12:12:48;;;;;;;8.48;2.05;;;;;;;27.94;39.39;97816.47;4971621;28;20046;-62
2021/07/19 12:15:37;;;;;;;4.13;1.33;;;;;;;29.48;37.68;97816.94;4987911;28;20065;-62
2021/07/19 12:18:48;;;;;;;3.10;1.40;;;;;;;29.90;35.47;97815.59;4988066;28;20042;-62
2021/07/19 12:21:43;;;;;;;6.67;1.60;;;;;;;29.09;36.07;97818.72;4989113;28;20073;-61
2021/07/19 12:24:32;;;;;;;4.28;1.40;;;;;;;28.34;38.84;97816.53;4996608;28;20054;-62
2021/07/19 12:27:21;;;;;;;3.25;1.40;;;;;;;28.83;37.96;97811.00;4990102;28;20046;-62
2021/07/19 12:30:10;;;;;;;5.45;1.50;;;;;;;30.01;37.10;97804.44;4988342;28;20042;-62
2021/07/19 12:32:58;;;;;;;4.68;1.70;;;;;;;30.87;34.52;97803.97;4978217;28;20407;-61
2021/07/19 12:35:50;;;;;;;5.38;1.52;;;;;;;31.61;34.63;97799.16;4990841;28;20042;-61
2021/07/19 12:38:38;;;;;;;4.00;1.52;;;;;;;30.42;35.37;97801.31;4991669;28;20070;-62
2021/07/19 12:41:26;;;;;;;5.95;1.50;;;;;;;29.54;37.17;97813.56;4986937;28;20053;-61
2021/07/19 12:44:14;;;;;;;9.95;1.92;;;;;;;29.21;36.36;97800.44;4978916;28;20058;-62
2021/07/19 12:47:02;;;;;;;4.47;1.85;;;;;;;29.56;35.24;97799.00;4988755;28;20046;-62
2021/07/19 12:49:51;;;;;;;4.82;1.95;;;;;;;29.12;35.58;97807.66;4984362;28;20518;-62
2021/07/19 12:52:38;;;;;;;5.80;2.20;;;;;;;29.83;34.65;97793.25;4974631;28;20132;-62
2021/07/19 12:55:35;;;;;;;7.43;2.05;;;;;;;31.68;31.91;97793.81;4990180;28;20116;-61
2021/07/19 12:58:23;;;;;;;7.00;3.53;;;;;;;29.64;34.19;97803.44;4989420;28;20054;-61
2021/07/19 13:01:12;;;;;;;5.40;2.78;;;;;;;30.72;34.73;97793.25;4989569;28;20427;-62
2021/07/19 13:04:07;;;;;;;8.18;2.85;;;;;;;30.43;34.67;97798.47;4988100;28;20113;-62
2021/07/19 13:06:56;;;;;;;7.15;2.92;;;;;;;29.71;32.11;97800.88;4991313;28;20065;-62
2021/07/19 13:09:54;;;;;;;7.32;2.70;;;;;;;30.05;32.41;97792.34;4994348;28;20039;-62
2021/07/19 13:12:59;;;;;;;7.38;3.40;;;;;;;29.56;34.11;97801.66;4985601;28;20055;-62
2021/07/19 13:15:47;;;;;;;7.47;3.80;;;;;;;31.55;32.30;97796.41;4994305;28;20042;-62
2021/07/19 13:18:35;;;;;;;5.93;2.92;;;;;;;31.56;32.70;97784.66;4979455;28;20116;-62
2021/07/19 13:21:24;;;;;;;8.32;4.18;;;;;;;31.22;32.46;97788.84;4981132;28;20129;-62